sensor_id;sensor_type;location;lat;lon;timestamp;pressure;altitude;pressure_sealevel;temperature;humidity
63652;BME280;68011;37.386;-122.002;2023-02-21T00:00:06;101662.03;;;18.84;28.59
63652;BME280;68011;37.386;-122.002;2023-02-21T00:00:51;101657.78;;;18.81;28.76
63652;BME280;68011;37.386;-122.002;2023-02-21T00:01:35;101655.84;;;18.75;28.90
63652;BME280;68011;37.386;-122.002;2023-02-21T00:02:20;101663.44;;;18.73;29.26
63652;BME280;68011;37.386;-122.002;2023-02-21T00:03:04;101654.16;;;18.74;29.37
63652;BME280;68011;37.386;-122.002;2023-02-21T00:03:49;101655.41;;;18.71;29.61
63652;BME280;68011;37.386;-122.002;2023-02-21T00:04:34;101654.16;;;18.74;29.87
63652;BME280;68011;37.386;-122.002;2023-02-21T00:05:18;101657.53;;;18.76;30.00
63652;BME280;68011;37.386;-122.002;2023-02-21T00:06:03;101654.19;;;18.81;30.06
63652;BME280;68011;37.386;-122.002;2023-02-21T00:06:47;101654.19;;;18.81;30.23
63652;BME280;68011;37.386;-122.002;2023-02-21T00:07:32;101646.56;;;18.76;30.33
63652;BME280;68011;37.386;-122.002;2023-02-21T00:08:17;101647.63;;;18.75;30.45
63652;BME280;68011;37.386;-122.002;2023-02-21T00:09:02;101647.63;;;18.75;30.44
63652;BME280;68011;37.386;-122.002;2023-02-21T00:09:46;101641.72;;;18.78;30.33
63652;BME280;68011;37.386;-122.002;2023-02-21T00:10:31;101644.22;;;18.73;30.49
63652;BME280;68011;37.386;-122.002;2023-02-21T00:11:15;101643.19;;;18.74;29.58
63652;BME280;68011;37.386;-122.002;2023-02-21T00:11:59;101639.31;;;18.62;29.03
63652;BME280;68011;37.386;-122.002;2023-02-21T00:12:44;101644.81;;;18.62;29.14
63652;BME280;68011;37.386;-122.002;2023-02-21T00:13:28;101640.00;;;18.64;29.11
63652;BME280;68011;37.386;-122.002;2023-02-21T00:14:13;101643.56;;;18.64;28.83
63652;BME280;68011;37.386;-122.002;2023-02-21T00:14:57;101630.44;;;18.60;28.83
63652;BME280;68011;37.386;-122.002;2023-02-21T00:15:42;101636.19;;;18.65;28.84
63652;BME280;68011;37.386;-122.002;2023-02-21T00:16:26;101635.53;;;18.63;28.62
63652;BME280;68011;37.386;-122.002;2023-02-21T00:17:10;101634.28;;;18.59;28.32
63652;BME280;68011;37.386;-122.002;2023-02-21T00:17:55;101626.84;;;18.52;28.35
63652;BME280;68011;37.386;-122.002;2023-02-21T00:18:40;101637.19;;;18.50;28.16
63652;BME280;68011;37.386;-122.002;2023-02-21T00:19:25;101634.22;;;18.52;28.29
63652;BME280;68011;37.386;-122.002;2023-02-21T00:20:10;101635.91;;;18.53;28.52
63652;BME280;68011;37.386;-122.002;2023-02-21T00:20:54;101641.19;;;18.54;28.38
63652;BME280;68011;37.386;-122.002;2023-02-21T00:21:39;101636.09;;;18.51;28.40
63652;BME280;68011;37.386;-122.002;2023-02-21T00:22:23;101640.56;;;18.52;28.39
63652;BME280;68011;37.386;-122.002;2023-02-21T00:23:09;101640.56;;;18.52;28.56
63652;BME280;68011;37.386;-122.002;2023-02-21T00:23:54;101638.63;;;18.46;28.30
63652;BME280;68011;37.386;-122.002;2023-02-21T00:24:39;101637.53;;;18.41;28.42
63652;BME280;68011;37.386;-122.002;2023-02-21T00:25:23;101621.47;;;18.31;28.46
63652;BME280;68011;37.386;-122.002;2023-02-21T00:26:08;101624.47;;;18.36;28.65
63652;BME280;68011;37.386;-122.002;2023-02-21T00:26:52;101630.34;;;18.33;29.02
63652;BME280;68011;37.386;-122.002;2023-02-21T00:27:36;101630.78;;;18.36;29.01
63652;BME280;68011;37.386;-122.002;2023-02-21T00:28:21;101631.63;;;18.37;29.22
63652;BME280;68011;37.386;-122.002;2023-02-21T00:29:06;101625.94;;;18.39;29.31
63652;BME280;68011;37.386;-122.002;2023-02-21T00:29:51;101635.44;;;18.36;29.37
63652;BME280;68011;37.386;-122.002;2023-02-21T00:30:36;101639.59;;;18.32;29.64
63652;BME280;68011;37.386;-122.002;2023-02-21T00:31:20;101635.81;;;18.33;29.73
63652;BME280;68011;37.386;-122.002;2023-02-21T00:32:05;101630.34;;;18.33;29.52
63652;BME280;68011;37.386;-122.002;2023-02-21T00:32:49;101634.53;;;18.29;29.65
63652;BME280;68011;37.386;-122.002;2023-02-21T00:33:36;101639.59;;;18.32;29.89
63652;BME280;68011;37.386;-122.002;2023-02-21T00:34:20;101628.63;;;18.32;29.52
63652;BME280;68011;37.386;-122.002;2023-02-21T00:35:05;101615.09;;;18.24;29.54
63652;BME280;68011;37.386;-122.002;2023-02-21T00:35:49;101627.41;;;18.34;29.74
63652;BME280;68011;37.386;-122.002;2023-02-21T00:36:34;101624.84;;;18.33;30.01
63652;BME280;68011;37.386;-122.002;2023-02-21T00:37:18;101630.75;;;18.30;29.90
63652;BME280;68011;37.386;-122.002;2023-02-21T00:38:03;101622.72;;;18.28;29.88
63652;BME280;68011;37.386;-122.002;2023-02-21T00:38:48;101623.16;;;18.32;30.16
63652;BME280;68011;37.386;-122.002;2023-02-21T00:39:32;101628.63;;;18.32;29.95
63652;BME280;68011;37.386;-122.002;2023-02-21T00:40:17;101616.78;;;18.25;30.23
63652;BME280;68011;37.386;-122.002;2023-02-21T00:41:02;101623.97;;;18.26;30.55
63652;BME280;68011;37.386;-122.002;2023-02-21T00:41:46;101626.00;;;18.17;30.66
63652;BME280;68011;37.386;-122.002;2023-02-21T00:42:31;101624.34;;;18.16;30.85
63652;BME280;68011;37.386;-122.002;2023-02-21T00:43:15;101621.00;;;18.21;30.71
63652;BME280;68011;37.386;-122.002;2023-02-21T00:44:00;101624.38;;;18.23;30.94
63652;BME280;68011;37.386;-122.002;2023-02-21T00:44:44;101629.22;;;18.21;30.97
63652;BME280;68011;37.386;-122.002;2023-02-21T00:45:29;101622.69;;;18.22;31.28
63652;BME280;68011;37.386;-122.002;2023-02-21T00:46:14;101626.47;;;18.21;31.29
63652;BME280;68011;37.386;-122.002;2023-02-21T00:46:58;101627.66;;;18.11;31.71
63652;BME280;68011;37.386;-122.002;2023-02-21T00:47:43;101635.69;;;18.13;31.94
63652;BME280;68011;37.386;-122.002;2023-02-21T00:48:28;101631.22;;;18.05;32.40
63652;BME280;68011;37.386;-122.002;2023-02-21T00:49:13;101628.88;;;18.02;32.30
63652;BME280;68011;37.386;-122.002;2023-02-21T00:49:57;101623.84;;;18.06;32.30
63652;BME280;68011;37.386;-122.002;2023-02-21T00:50:42;101631.88;;;18.07;32.52
63652;BME280;68011;37.386;-122.002;2023-02-21T00:51:26;101628.06;;;18.08;32.59
63652;BME280;68011;37.386;-122.002;2023-02-21T00:52:11;101632.28;;;18.04;32.66
63652;BME280;68011;37.386;-122.002;2023-02-21T00:52:55;101625.50;;;18.00;32.73
63652;BME280;68011;37.386;-122.002;2023-02-21T00:53:39;101623.41;;;18.02;32.98
63652;BME280;68011;37.386;-122.002;2023-02-21T00:54:24;101626.16;;;18.02;33.21
63652;BME280;68011;37.386;-122.002;2023-02-21T00:55:09;101626.94;;;17.96;33.34
63652;BME280;68011;37.386;-122.002;2023-02-21T00:55:53;101633.88;;;17.92;33.03
63652;BME280;68011;37.386;-122.002;2023-02-21T00:56:38;101630.88;;;17.87;32.97
63652;BME280;68011;37.386;-122.002;2023-02-21T00:57:23;101635.53;;;17.86;33.32
63652;BME280;68011;37.386;-122.002;2023-02-21T00:58:07;101636.38;;;17.87;33.31
63652;BME280;68011;37.386;-122.002;2023-02-21T00:58:52;101641.47;;;17.90;33.43
63652;BME280;68011;37.386;-122.002;2023-02-21T00:59:36;101632.50;;;17.81;33.81
63652;BME280;68011;37.386;-122.002;2023-02-21T01:00:22;101642.34;;;17.75;34.01
63652;BME280;68011;37.386;-122.002;2023-02-21T01:01:07;101625.78;;;17.62;33.98
63652;BME280;68011;37.386;-122.002;2023-02-21T01:01:52;101637.44;;;17.64;34.37
63652;BME280;68011;37.386;-122.002;2023-02-21T01:02:36;101647.06;;;17.60;34.38
63652;BME280;68011;37.386;-122.002;2023-02-21T01:03:21;101640.94;;;17.58;34.54
63652;BME280;68011;37.386;-122.002;2023-02-21T01:04:05;101639.91;;;17.59;34.51
63652;BME280;68011;37.386;-122.002;2023-02-21T01:04:50;101644.97;;;17.62;34.63
63652;BME280;68011;37.386;-122.002;2023-02-21T01:05:34;101643.50;;;17.59;34.67
63652;BME280;68011;37.386;-122.002;2023-02-21T01:06:19;101651.63;;;17.53;35.11
63652;BME280;68011;37.386;-122.002;2023-02-21T01:07:03;101639.72;;;17.39;35.25
63652;BME280;68011;37.386;-122.002;2023-02-21T01:07:47;101639.13;;;17.22;35.69
63652;BME280;68011;37.386;-122.002;2023-02-21T01:08:32;101642.59;;;17.31;35.60
63652;BME280;68011;37.386;-122.002;2023-02-21T01:09:16;101639.25;;;17.35;35.66
63652;BME280;68011;37.386;-122.002;2023-02-21T01:10:01;101632.94;;;17.35;35.73
63652;BME280;68011;37.386;-122.002;2023-02-21T01:10:45;101617.22;;;17.22;35.81
63652;BME280;68011;37.386;-122.002;2023-02-21T01:11:31;101640.97;;;17.36;36.06
63652;BME280;68011;37.386;-122.002;2023-02-21T01:12:15;101638.44;;;17.35;36.27
63652;BME280;68011;37.386;-122.002;2023-02-21T01:13:00;101636.25;;;17.30;36.38
63652;BME280;68011;37.386;-122.002;2023-02-21T01:13:44;101640.03;;;17.29;36.34
63652;BME280;68011;37.386;-122.002;2023-02-21T01:14:29;101645.50;;;17.29;36.58
63652;BME280;68011;37.386;-122.002;2023-02-21T01:15:14;101640.72;;;17.31;36.54
63652;BME280;68011;37.386;-122.002;2023-02-21T01:15:58;101651.41;;;17.26;36.77
63652;BME280;68011;37.386;-122.002;2023-02-21T01:16:42;101649.31;;;17.28;36.82
63652;BME280;68011;37.386;-122.002;2023-02-21T01:17:27;101643.84;;;17.28;36.77
63652;BME280;68011;37.386;-122.002;2023-02-21T01:18:11;101634.97;;;17.26;36.97
63652;BME280;68011;37.386;-122.002;2023-02-21T01:18:56;101636.66;;;17.27;36.98
63652;BME280;68011;37.386;-122.002;2023-02-21T01:19:41;101636.25;;;17.30;37.18
63652;BME280;68011;37.386;-122.002;2023-02-21T01:20:26;101643.19;;;17.26;37.27
63652;BME280;68011;37.386;-122.002;2023-02-21T01:21:16;101640.19;;;17.21;37.49
63652;BME280;68011;37.386;-122.002;2023-02-21T01:22:04;101644.59;;;17.22;37.50
63652;BME280;68011;37.386;-122.002;2023-02-21T01:22:48;101643.97;;;17.20;37.55
63652;BME280;68011;37.386;-122.002;2023-02-21T01:23:33;101646.03;;;17.18;37.83
63652;BME280;68011;37.386;-122.002;2023-02-21T01:24:17;101644.53;;;17.15;38.95
63652;BME280;68011;37.386;-122.002;2023-02-21T01:25:02;101646.53;;;17.06;39.69
63652;BME280;68011;37.386;-122.002;2023-02-21T01:25:47;101645.63;;;16.99;40.01
63652;BME280;68011;37.386;-122.002;2023-02-21T01:26:31;101646.00;;;16.96;40.15
63652;BME280;68011;37.386;-122.002;2023-02-21T01:27:16;101647.19;;;16.87;40.79
63652;BME280;68011;37.386;-122.002;2023-02-21T01:28:00;101646.88;;;16.82;41.06
63652;BME280;68011;37.386;-122.002;2023-02-21T01:28:46;101659.22;;;16.78;41.46
63652;BME280;68011;37.386;-122.002;2023-02-21T01:29:30;101651.22;;;16.76;41.54
63652;BME280;68011;37.386;-122.002;2023-02-21T01:30:15;101655.28;;;16.65;42.34
63652;BME280;68011;37.386;-122.002;2023-02-21T01:31:00;101652.28;;;16.60;42.57
63652;BME280;68011;37.386;-122.002;2023-02-21T01:31:44;101656.06;;;16.59;42.53
63652;BME280;68011;37.386;-122.002;2023-02-21T01:32:28;101657.88;;;16.52;42.78
63652;BME280;68011;37.386;-122.002;2023-02-21T01:33:13;101656.63;;;16.40;43.35
63652;BME280;68011;37.386;-122.002;2023-02-21T01:33:57;101659.34;;;16.40;42.91
63652;BME280;68011;37.386;-122.002;2023-02-21T01:34:42;101657.69;;;16.39;43.02
63652;BME280;68011;37.386;-122.002;2023-02-21T01:35:27;101653.91;;;16.25;42.55
63652;BME280;68011;37.386;-122.002;2023-02-21T01:36:11;101661.16;;;16.33;42.53
63652;BME280;68011;37.386;-122.002;2023-02-21T01:36:56;101658.78;;;16.29;42.28
63652;BME280;68011;37.386;-122.002;2023-02-21T01:37:41;101664.94;;;16.31;42.46
63652;BME280;68011;37.386;-122.002;2023-02-21T01:38:25;101652.66;;;16.27;42.55
63652;BME280;68011;37.386;-122.002;2023-02-21T01:39:10;101661.91;;;16.26;42.76
63652;BME280;68011;37.386;-122.002;2023-02-21T01:39:55;101659.84;;;16.28;42.80
63652;BME280;68011;37.386;-122.002;2023-02-21T01:40:40;101658.91;;;16.21;43.02
63652;BME280;68011;37.386;-122.002;2023-02-21T01:41:24;101655.47;;;16.19;43.16
63652;BME280;68011;37.386;-122.002;2023-02-21T01:42:09;101662.00;;;16.18;43.09
63652;BME280;68011;37.386;-122.002;2023-02-21T01:42:54;101657.56;;;16.17;43.47
63652;BME280;68011;37.386;-122.002;2023-02-21T01:43:54;101652.47;;;16.14;43.49
63652;BME280;68011;37.386;-122.002;2023-02-21T01:44:42;101653.22;;;16.08;43.57
63652;BME280;68011;37.386;-122.002;2023-02-21T01:46:20;101650.41;;;16.01;44.12
63652;BME280;68011;37.386;-122.002;2023-02-21T01:47:06;101650.56;;;16.00;44.14
63652;BME280;68011;37.386;-122.002;2023-02-21T01:47:53;101656.31;;;15.90;44.62
63652;BME280;68011;37.386;-122.002;2023-02-21T01:48:37;101655.28;;;15.91;44.42
63652;BME280;68011;37.386;-122.002;2023-02-21T01:49:22;101654.72;;;15.96;44.35
63652;BME280;68011;37.386;-122.002;2023-02-21T01:50:27;101651.31;;;15.93;44.61
63652;BME280;68011;37.386;-122.002;2023-02-21T01:51:18;101655.28;;;15.91;44.71
63652;BME280;68011;37.386;-122.002;2023-02-21T01:52:03;101659.22;;;15.88;44.81
63652;BME280;68011;37.386;-122.002;2023-02-21T01:52:48;101662.53;;;15.84;44.93
63652;BME280;68011;37.386;-122.002;2023-02-21T01:53:33;101661.28;;;15.86;44.85
63652;BME280;68011;37.386;-122.002;2023-02-21T01:54:18;101638.16;;;15.74;44.98
63652;BME280;68011;37.386;-122.002;2023-02-21T01:55:05;101656.88;;;15.85;44.93
63652;BME280;68011;37.386;-122.002;2023-02-21T01:55:51;101641.72;;;15.74;45.12
63652;BME280;68011;37.386;-122.002;2023-02-21T01:56:37;101649.72;;;15.84;45.04
63652;BME280;68011;37.386;-122.002;2023-02-21T01:57:23;101654.50;;;15.82;45.09
63652;BME280;68011;37.386;-122.002;2023-02-21T01:58:07;101656.59;;;15.80;45.18
63652;BME280;68011;37.386;-122.002;2023-02-21T01:58:53;101658.66;;;15.78;45.28
63652;BME280;68011;37.386;-122.002;2023-02-21T01:59:39;101648.56;;;15.79;45.21
63652;BME280;68011;37.386;-122.002;2023-02-21T02:00:24;101651.13;;;15.80;45.15
63652;BME280;68011;37.386;-122.002;2023-02-21T02:01:20;101651.47;;;15.77;45.09
63652;BME280;68011;37.386;-122.002;2023-02-21T02:02:16;101655.25;;;15.76;45.36
63652;BME280;68011;37.386;-122.002;2023-02-21T02:03:07;101650.13;;;15.73;45.30
63652;BME280;68011;37.386;-122.002;2023-02-21T02:03:52;101651.16;;;15.72;45.08
63652;BME280;68011;37.386;-122.002;2023-02-21T02:04:37;101645.69;;;15.72;45.25
63652;BME280;68011;37.386;-122.002;2023-02-21T02:05:22;101642.84;;;15.65;45.56
63652;BME280;68011;37.386;-122.002;2023-02-21T02:06:11;101650.88;;;15.67;45.45
63652;BME280;68011;37.386;-122.002;2023-02-21T02:06:56;101654.25;;;15.69;45.51
63652;BME280;68011;37.386;-122.002;2023-02-21T02:07:41;101647.00;;;15.61;45.56
63652;BME280;68011;37.386;-122.002;2023-02-21T02:08:29;101649.16;;;15.66;45.70
63652;BME280;68011;37.386;-122.002;2023-02-21T02:09:18;101656.69;;;15.64;45.57
63652;BME280;68011;37.386;-122.002;2023-02-21T02:10:04;101662.16;;;15.64;45.67
63652;BME280;68011;37.386;-122.002;2023-02-21T02:11:02;101665.06;;;15.62;45.78
63652;BME280;68011;37.386;-122.002;2023-02-21T02:13:17;101657.81;;;15.54;45.55
63652;BME280;68011;37.386;-122.002;2023-02-21T02:15:31;101657.84;;;15.46;46.14
63652;BME280;68011;37.386;-122.002;2023-02-21T02:16:39;101651.38;;;15.47;46.13
63652;BME280;68011;37.386;-122.002;2023-02-21T02:17:49;101645.22;;;15.45;46.20
63652;BME280;68011;37.386;-122.002;2023-02-21T02:18:45;101645.97;;;15.39;46.47
63652;BME280;68011;37.386;-122.002;2023-02-21T02:24:26;101654.63;;;15.19;46.92
63652;BME280;68011;37.386;-122.002;2023-02-21T02:25:17;101649.56;;;15.16;47.08
63652;BME280;68011;37.386;-122.002;2023-02-21T02:32:37;101653.69;;;15.04;47.44
63652;BME280;68011;37.386;-122.002;2023-02-21T02:34:52;101650.00;;;14.97;47.72
63652;BME280;68011;37.386;-122.002;2023-02-21T02:36:29;101660.91;;;14.97;48.08
63652;BME280;68011;37.386;-122.002;2023-02-21T02:36:37;101655.63;;;14.95;48.10
63652;BME280;68011;37.386;-122.002;2023-02-21T02:39:40;101659.59;;;14.93;48.62
63652;BME280;68011;37.386;-122.002;2023-02-21T02:40:48;101662.31;;;14.93;48.66
63652;BME280;68011;37.386;-122.002;2023-02-21T02:41:41;101657.53;;;14.95;48.63
63652;BME280;68011;37.386;-122.002;2023-02-21T02:43:25;101661.16;;;14.87;49.10
63652;BME280;68011;37.386;-122.002;2023-02-21T02:44:01;101658.97;;;14.82;49.38
63652;BME280;68011;37.386;-122.002;2023-02-21T02:44:40;101664.41;;;14.82;49.47
63652;BME280;68011;37.386;-122.002;2023-02-21T02:45:18;101663.56;;;14.82;49.54
63652;BME280;68011;37.386;-122.002;2023-02-21T02:46:26;101672.59;;;14.82;49.30
63652;BME280;68011;37.386;-122.002;2023-02-21T02:46:54;101671.56;;;14.84;49.37
63652;BME280;68011;37.386;-122.002;2023-02-21T02:47:36;101658.81;;;14.76;49.13
63652;BME280;68011;37.386;-122.002;2023-02-21T02:48:32;101673.59;;;14.81;49.13
63652;BME280;68011;37.386;-122.002;2023-02-21T02:49:08;101672.31;;;14.69;49.20
63652;BME280;68011;37.386;-122.002;2023-02-21T02:49:37;101670.94;;;14.73;49.22
63652;BME280;68011;37.386;-122.002;2023-02-21T02:50:07;101665.50;;;14.73;49.24
63652;BME280;68011;37.386;-122.002;2023-02-21T02:50:35;101667.16;;;14.74;49.06
63652;BME280;68011;37.386;-122.002;2023-02-21T02:51:06;101659.66;;;14.76;49.00
63652;BME280;68011;37.386;-122.002;2023-02-21T02:51:34;101670.56;;;14.76;49.04
63652;BME280;68011;37.386;-122.002;2023-02-21T02:52:07;101665.59;;;14.80;49.03
63652;BME280;68011;37.386;-122.002;2023-02-21T02:52:34;101680.28;;;14.79;48.96
63652;BME280;68011;37.386;-122.002;2023-02-21T02:53:02;101658.97;;;14.82;49.01
63652;BME280;68011;37.386;-122.002;2023-02-21T02:53:29;101657.25;;;14.81;49.29
63652;BME280;68011;37.386;-122.002;2023-02-21T02:53:55;101672.59;;;14.82;49.17
63652;BME280;68011;37.386;-122.002;2023-02-21T02:54:22;101673.59;;;14.81;49.27
63652;BME280;68011;37.386;-122.002;2023-02-21T02:55:02;101669.88;;;14.82;49.20
63652;BME280;68011;37.386;-122.002;2023-02-21T02:55:36;101673.97;;;14.78;49.53
63652;BME280;68011;37.386;-122.002;2023-02-21T02:56:09;101672.97;;;14.71;49.74
63652;BME280;68011;37.386;-122.002;2023-02-21T02:56:36;101672.78;;;14.73;49.80
63652;BME280;68011;37.386;-122.002;2023-02-21T02:57:06;101668.00;;;14.75;49.65
63652;BME280;68011;37.386;-122.002;2023-02-21T02:57:37;101664.44;;;14.74;49.90
63652;BME280;68011;37.386;-122.002;2023-02-21T02:58:09;101672.13;;;14.71;50.20
63652;BME280;68011;37.386;-122.002;2023-02-21T02:58:43;101668.06;;;14.67;50.38
63652;BME280;68011;37.386;-122.002;2023-02-21T02:59:16;101664.34;;;14.59;50.29
63652;BME280;68011;37.386;-122.002;2023-02-21T02:59:45;101663.97;;;14.62;50.55
63652;BME280;68011;37.386;-122.002;2023-02-21T03:00:13;101666.53;;;14.64;50.47
63652;BME280;68011;37.386;-122.002;2023-02-21T03:00:45;101664.66;;;14.65;50.47
63652;BME280;68011;37.386;-122.002;2023-02-21T03:03:37;101664.88;;;14.47;50.05
63652;BME280;68011;37.386;-122.002;2023-02-21T03:08:13;67286.50;;;-147.42;100.00
63652;BME280;68011;37.386;-122.002;2023-02-21T03:11:23;67286.50;;;-147.42;100.00
63652;BME280;68011;37.386;-122.002;2023-02-21T03:12:33;67286.50;;;-147.42;100.00
63652;BME280;68011;37.386;-122.002;2023-02-21T03:14:14;67286.50;;;-147.42;100.00
63652;BME280;68011;37.386;-122.002;2023-02-21T03:14:50;67286.50;;;-147.42;100.00
63652;BME280;68011;37.386;-122.002;2023-02-21T03:16:36;67286.50;;;-147.42;100.00
63652;BME280;68011;37.386;-122.002;2023-02-21T03:17:09;67286.50;;;-147.42;100.00
63652;BME280;68011;37.386;-122.002;2023-02-21T03:17:42;67286.50;;;-147.42;100.00
63652;BME280;68011;37.386;-122.002;2023-02-21T03:18:41;67286.50;;;-147.42;100.00
63652;BME280;68011;37.386;-122.002;2023-02-21T03:19:15;67286.50;;;-147.42;100.00
63652;BME280;68011;37.386;-122.002;2023-02-21T03:19:43;67286.50;;;-147.42;100.00
63652;BME280;68011;37.386;-122.002;2023-02-21T03:20:13;67286.50;;;-147.42;100.00
63652;BME280;68011;37.386;-122.002;2023-02-21T03:20:41;67286.50;;;-147.42;100.00
63652;BME280;68011;37.386;-122.002;2023-02-21T03:21:12;67286.50;;;-147.42;100.00
63652;BME280;68011;37.386;-122.002;2023-02-21T03:21:47;67286.50;;;-147.42;100.00
63652;BME280;68011;37.386;-122.002;2023-02-21T03:22:18;67286.50;;;-147.42;100.00
63652;BME280;68011;37.386;-122.002;2023-02-21T03:22:47;67286.50;;;-147.42;100.00
63652;BME280;68011;37.386;-122.002;2023-02-21T03:23:16;67286.50;;;-147.42;100.00
63652;BME280;68011;37.386;-122.002;2023-02-21T03:23:45;67286.50;;;-147.42;100.00
63652;BME280;68011;37.386;-122.002;2023-02-21T03:24:14;67286.50;;;-147.42;100.00
63652;BME280;68011;37.386;-122.002;2023-02-21T03:24:42;67286.50;;;-147.42;100.00
63652;BME280;68011;37.386;-122.002;2023-02-21T03:25:10;67286.50;;;-147.42;100.00
63652;BME280;68011;37.386;-122.002;2023-02-21T03:25:39;67286.50;;;-147.42;100.00
63652;BME280;68011;37.386;-122.002;2023-02-21T03:26:07;67286.50;;;-147.42;100.00
63652;BME280;68011;37.386;-122.002;2023-02-21T03:26:37;67286.50;;;-147.42;100.00
63652;BME280;68011;37.386;-122.002;2023-02-21T03:27:07;67286.50;;;-147.42;100.00
63652;BME280;68011;37.386;-122.002;2023-02-21T03:27:35;67286.50;;;-147.42;100.00
63652;BME280;68011;37.386;-122.002;2023-02-21T03:28:02;67286.50;;;-147.42;100.00
63652;BME280;68011;37.386;-122.002;2023-02-21T03:28:29;67286.50;;;-147.42;100.00
63652;BME280;68011;37.386;-122.002;2023-02-21T03:28:56;67286.50;;;-147.42;100.00
63652;BME280;68011;37.386;-122.002;2023-02-21T03:29:23;67286.50;;;-147.42;100.00
63652;BME280;68011;37.386;-122.002;2023-02-21T03:29:51;67286.50;;;-147.42;100.00
63652;BME280;68011;37.386;-122.002;2023-02-21T03:30:19;67286.50;;;-147.42;100.00
63652;BME280;68011;37.386;-122.002;2023-02-21T03:30:48;67286.50;;;-147.42;100.00
63652;BME280;68011;37.386;-122.002;2023-02-21T03:31:16;67286.50;;;-147.42;100.00
63652;BME280;68011;37.386;-122.002;2023-02-21T03:31:55;67286.50;;;-147.42;100.00
63652;BME280;68011;37.386;-122.002;2023-02-21T03:32:31;67286.50;;;-147.42;100.00
63652;BME280;68011;37.386;-122.002;2023-02-21T03:32:59;67286.50;;;-147.42;100.00
63652;BME280;68011;37.386;-122.002;2023-02-21T03:33:25;67286.50;;;-147.42;100.00
63652;BME280;68011;37.386;-122.002;2023-02-21T03:33:52;67286.50;;;-147.42;100.00
63652;BME280;68011;37.386;-122.002;2023-02-21T03:34:19;67286.50;;;-147.42;100.00
63652;BME280;68011;37.386;-122.002;2023-02-21T03:34:45;67286.50;;;-147.42;100.00
63652;BME280;68011;37.386;-122.002;2023-02-21T03:35:12;67286.50;;;-147.42;100.00
63652;BME280;68011;37.386;-122.002;2023-02-21T03:35:40;67286.50;;;-147.42;100.00
63652;BME280;68011;37.386;-122.002;2023-02-21T03:36:08;67286.50;;;-147.42;100.00
63652;BME280;68011;37.386;-122.002;2023-02-21T03:36:36;67286.50;;;-147.42;100.00
63652;BME280;68011;37.386;-122.002;2023-02-21T03:37:07;67286.50;;;-147.42;100.00
63652;BME280;68011;37.386;-122.002;2023-02-21T03:37:39;67286.50;;;-147.42;100.00
63652;BME280;68011;37.386;-122.002;2023-02-21T03:38:06;67286.50;;;-147.42;100.00
63652;BME280;68011;37.386;-122.002;2023-02-21T03:38:33;67286.50;;;-147.42;100.00
63652;BME280;68011;37.386;-122.002;2023-02-21T03:39:00;67286.50;;;-147.42;100.00
63652;BME280;68011;37.386;-122.002;2023-02-21T03:39:26;67286.50;;;-147.42;100.00
63652;BME280;68011;37.386;-122.002;2023-02-21T03:39:54;67286.50;;;-147.42;100.00
63652;BME280;68011;37.386;-122.002;2023-02-21T03:40:23;67286.50;;;-147.42;100.00
63652;BME280;68011;37.386;-122.002;2023-02-21T03:40:50;67286.50;;;-147.42;100.00
63652;BME280;68011;37.386;-122.002;2023-02-21T03:41:17;67286.50;;;-147.42;100.00
63652;BME280;68011;37.386;-122.002;2023-02-21T03:41:43;67286.50;;;-147.42;100.00
63652;BME280;68011;37.386;-122.002;2023-02-21T03:42:09;67286.50;;;-147.42;100.00
63652;BME280;68011;37.386;-122.002;2023-02-21T03:42:35;67286.50;;;-147.42;100.00
63652;BME280;68011;37.386;-122.002;2023-02-21T03:43:03;67286.50;;;-147.42;100.00
63652;BME280;68011;37.386;-122.002;2023-02-21T03:43:31;67286.50;;;-147.42;100.00
63652;BME280;68011;37.386;-122.002;2023-02-21T03:43:58;67286.50;;;-147.42;100.00
63652;BME280;68011;37.386;-122.002;2023-02-21T03:44:24;67286.50;;;-147.42;100.00
63652;BME280;68011;37.386;-122.002;2023-02-21T03:44:50;67286.50;;;-147.42;100.00
63652;BME280;68011;37.386;-122.002;2023-02-21T03:45:16;67286.50;;;-147.42;100.00
63652;BME280;68011;37.386;-122.002;2023-02-21T03:45:43;67286.50;;;-147.42;100.00
63652;BME280;68011;37.386;-122.002;2023-02-21T03:46:09;67286.50;;;-147.42;100.00
63652;BME280;68011;37.386;-122.002;2023-02-21T03:46:35;67286.50;;;-147.42;100.00
63652;BME280;68011;37.386;-122.002;2023-02-21T03:47:01;67286.50;;;-147.42;100.00
63652;BME280;68011;37.386;-122.002;2023-02-21T03:47:28;67286.50;;;-147.42;100.00
63652;BME280;68011;37.386;-122.002;2023-02-21T03:47:54;67286.50;;;-147.42;100.00
63652;BME280;68011;37.386;-122.002;2023-02-21T03:48:20;67286.50;;;-147.42;100.00
63652;BME280;68011;37.386;-122.002;2023-02-21T03:48:46;67286.50;;;-147.42;100.00
63652;BME280;68011;37.386;-122.002;2023-02-21T03:49:13;67286.50;;;-147.42;100.00
63652;BME280;68011;37.386;-122.002;2023-02-21T03:49:39;67286.50;;;-147.42;100.00
63652;BME280;68011;37.386;-122.002;2023-02-21T03:50:06;67286.50;;;-147.42;100.00
63652;BME280;68011;37.386;-122.002;2023-02-21T03:50:32;67286.50;;;-147.42;100.00
63652;BME280;68011;37.386;-122.002;2023-02-21T03:50:59;67286.50;;;-147.42;100.00
63652;BME280;68011;37.386;-122.002;2023-02-21T03:51:25;67286.50;;;-147.42;100.00
63652;BME280;68011;37.386;-122.002;2023-02-21T03:51:51;67286.50;;;-147.42;100.00